Terminal Aerodrome Forecast
Issued by NWS Sioux Falls, SD

Home | Current Version | Previous Version | Graphics & Text | Print | Product List | Glossary Off
Versions: 1 2 3 4 5 6 7 8 9 10 11 12 13 14 15 16

000
FTUS43 KFSD 190857 AAA
TAFSUX
TAF AMD
KSUX 190857Z 1909/2006 01013G20KT 5SM -FZDZ OVC015
     FM191700 01015G25KT P6SM OVC015
     FM200000 01010KT P6SM OVC015=

USA.gov is the U.S. government's official web portal to all federal, state and local government web resources and services.